Blue Ridge Observed Data For Previous 48 Hours

Caption
Day and Hour Reservoir Elevation (behind dam)* Tailwater Elevation (below dam)* Average Hourly Discharge*
11/11/2018 2 AM EST 1,672.20 1,540.75 145
11/11/2018 3 AM EST 1,672.20 1,540.75 145
11/11/2018 4 AM EST 1,672.26 1,540.75 145
11/11/2018 5 AM EST 1,672.24 1,540.75 145
11/11/2018 6 AM EST 1,672.28 1,540.75 145
11/11/2018 7 AM EST 1,672.29 1,540.74 145
11/11/2018 8 AM EST 1,672.26 1,543.47 1,540
11/11/2018 9 AM EST 1,672.17 1,543.58 1,666
11/11/2018 10 AM EST 1,672.17 1,543.57 1,667
11/11/2018 11 AM EST 1,672.06 1,543.57 1,657
11/11/2018 12 PM EST 1,672.12 1,540.87 267
11/11/2018 1 PM EST 1,672.14 1,540.75 145
11/11/2018 2 PM EST 1,672.09 1,540.74 145
11/11/2018 3 PM EST 1,672.16 1,540.74 145
11/11/2018 4 PM EST 1,672.16 1,540.74 145
11/11/2018 5 PM EST 1,672.11 1,540.74 145
11/11/2018 6 PM EST 1,672.10 1,540.74 145
11/11/2018 7 PM EST 1,672.11 1,540.73 145
11/11/2018 8 PM EST 1,672.10 1,543.49 1,585
11/11/2018 9 PM EST 1,672.07 1,543.58 1,673
11/11/2018 10 PM EST 1,672.01 1,543.59 1,677
11/11/2018 11 PM EST 1,671.97 1,543.59 1,674
11/12/2018 12 AM EST 1,671.98 1,540.87 263
11/12/2018 1 AM EST 1,672.02 1,540.75 145
11/12/2018 2 AM EST 1,672.03 1,540.74 145
11/12/2018 3 AM EST 1,672.04 1,540.74 145
11/12/2018 4 AM EST 1,672.02 1,540.75 145
11/12/2018 5 AM EST 1,672.06 1,540.75 145
11/12/2018 6 AM EST 1,672.08 1,540.75 145
11/12/2018 7 AM EST 1,672.13 1,540.75 145
11/12/2018 8 AM EST 1,672.11 1,540.75 145
11/12/2018 9 AM EST 1,672.18 1,540.75 145
11/12/2018 10 AM EST 1,672.20 1,540.75 145
11/12/2018 11 AM EST 1,672.23 1,540.75 145
11/12/2018 12 PM EST 1,672.26 1,540.76 145
11/12/2018 1 PM EST 1,672.28 1,540.78 145
11/12/2018 2 PM EST 1,672.38 1,540.85 145
11/12/2018 3 PM EST 1,672.43 1,541.00 145
11/12/2018 4 PM EST 1,672.46 1,541.11 145
11/12/2018 5 PM EST 1,672.62 1,541.08 145
11/12/2018 6 PM EST 1,672.73 1,540.92 145
11/12/2018 7 PM EST 1,672.78 1,540.81 145
11/12/2018 8 PM EST 1,672.86 1,540.78 145
11/12/2018 9 PM EST 1,672.99 1,540.77 145
11/12/2018 10 PM EST 1,673.09 1,540.77 145
11/12/2018 11 PM EST 1,673.14 1,540.76 145
11/13/2018 12 AM EST 1,673.28 1,540.76 145
11/13/2018 1 AM EST 1,673.36 1,540.75 145
11/13/2018 2 AM EST 1,673.45 1,540.76 145
11/13/2018 3 AM EST 1,673.53 1,540.76 145
11/13/2018 4 AM EST 1,673.61 1,540.76 145
11/13/2018 5 AM EST 1,673.67 1,540.76 145
11/13/2018 6 AM EST 1,673.73 1,540.77 145
11/13/2018 7 AM EST 1,673.80 1,540.76 145
11/13/2018 8 AM EST 1,673.85 1,540.76 145
11/13/2018 9 AM EST 1,673.90 1,540.76 145
11/13/2018 10 AM EST 1,673.93 1,540.76 145
11/13/2018 11 AM EST 1,673.97 1,540.76 145

Elevations are in feet above sea level. Discharges are in cubic feet per second and are reported at the end of the hour.